Time;durP1;ratioP1;P1;durP2;ratioP2;P2;SDS_P1;SDS_P2;PMS_P1;PMS_P2;Temp;Humidity;BMP_temperature;BMP_pressure;BME280_temperature;BME280_humidity;BME280_pressure;Samples;Min_cycle;Max_cycle;Signal;HPM_P1;HPM_P2
2021/09/04 00:00:00;;;;;;;66.43;56.80;;;18.20;99.90;;;;;;5070791;28;20481;-64
2021/09/04 00:02:27;;;;;;;37.63;32.77;;;18.20;99.90;;;;;;5066808;28;20488;-64
2021/09/04 00:04:54;;;;;;;36.60;32.80;;;18.20;99.90;;;;;;5058434;28;20471;-64
2021/09/04 00:07:21;;;;;;;28.83;25.57;;;18.20;99.90;;;;;;5061995;28;20538;-64
2021/09/04 00:09:48;;;;;;;23.03;20.60;;;18.20;99.90;;;;;;5064293;28;20482;-64
2021/09/04 00:12:16;;;;;;;27.73;23.10;;;18.20;99.90;;;;;;5059090;28;20847;-64
2021/09/04 00:14:43;;;;;;;22.80;19.13;;;18.20;99.90;;;;;;5058964;28;20449;-64
2021/09/04 00:17:10;;;;;;;23.43;20.97;;;18.20;99.90;;;;;;5058855;28;20475;-65
2021/09/04 00:19:38;;;;;;;33.92;30.52;;;18.10;99.90;;;;;;5057977;28;20752;-64
2021/09/04 00:22:05;;;;;;;23.23;20.40;;;18.10;99.90;;;;;;5072150;28;20222;-64
2021/09/04 00:24:32;;;;;;;22.20;18.63;;;18.10;99.90;;;;;;5059008;28;21314;-64
2021/09/04 00:26:59;;;;;;;18.90;16.97;;;18.10;99.90;;;;;;5054465;28;20771;-65
2021/09/04 00:29:27;;;;;;;22.73;19.37;;;18.00;99.90;;;;;;5056910;28;20471;-64
2021/09/04 00:31:54;;;;;;;18.33;16.40;;;18.00;99.90;;;;;;5056855;28;20487;-65
2021/09/04 00:34:21;;;;;;;21.73;19.47;;;18.00;99.90;;;;;;5057577;28;20474;-65
2021/09/04 00:36:48;;;;;;;19.83;17.10;;;18.00;99.90;;;;;;5058136;28;20464;-65
2021/09/04 00:39:15;;;;;;;21.27;19.10;;;17.90;99.90;;;;;;5057624;28;20797;-65
2021/09/04 00:41:42;;;;;;;27.97;21.23;;;17.90;99.90;;;;;;5058220;28;20458;-65
2021/09/04 00:44:15;;;;;;;22.77;20.37;;;17.90;99.90;;;;;;5058665;28;20812;-64
2021/09/04 00:46:43;;;;;;;20.63;18.43;;;17.90;99.90;;;;;;5058380;28;20447;-64
2021/09/04 00:49:10;;;;;;;19.97;17.93;;;17.90;99.90;;;;;;5058269;28;20475;-65
2021/09/04 00:51:37;;;;;;;19.90;17.80;;;17.90;99.90;;;;;;5058123;28;20455;-64
2021/09/04 00:54:05;;;;;;;19.73;17.73;;;17.80;99.90;;;;;;5058074;28;20462;-64
2021/09/04 00:56:32;;;;;;;19.70;17.40;;;17.80;99.90;;;;;;5056773;28;20493;-64
2021/09/04 00:59:05;;;;;;;19.53;17.00;;;17.70;99.90;;;;;;5057633;28;20463;-65
2021/09/04 01:01:31;;;;;;;21.45;19.35;;;17.70;99.90;;;;;;5056638;28;20435;-64
2021/09/04 01:04:00;;;;;;;18.70;16.80;;;17.70;99.90;;;;;;5057853;28;20220;-64
2021/09/04 01:06:27;;;;;;;48.97;40.30;;;17.80;99.90;;;;;;5056520;28;20468;-64
2021/09/04 01:08:54;;;;;;;40.53;36.30;;;17.80;99.90;;;;;;5057948;28;20471;-63
2021/09/04 01:11:22;;;;;;;30.47;27.17;;;17.80;99.90;;;;;;5057724;28;20471;-63
2021/09/04 01:13:49;;;;;;;25.33;22.70;;;17.70;99.90;;;;;;5057970;28;21420;-64
2021/09/04 01:16:16;;;;;;;23.03;20.20;;;17.70;99.90;;;;;;5058042;28;20481;-65
2021/09/04 01:18:43;;;;;;;21.27;18.43;;;17.70;99.90;;;;;;5057445;28;20468;-65
2021/09/04 01:21:12;;;;;;;23.67;19.90;;;17.70;99.90;;;;;;5058222;28;20459;-64
2021/09/04 01:23:39;;;;;;;21.23;19.03;;;17.70;99.90;;;;;;5057094;28;20467;-65
2021/09/04 01:26:08;;;;;;;20.90;18.70;;;17.70;99.90;;;;;;5057813;28;20481;-65
2021/09/04 01:28:35;;;;;;;22.80;20.30;;;17.60;99.90;;;;;;5057546;28;20474;-65
2021/09/04 01:31:04;;;;;;;21.20;17.23;;;17.50;99.90;;;;;;5057990;28;20485;-65
2021/09/04 01:33:31;;;;;;;19.73;17.63;;;17.50;99.90;;;;;;5057823;28;20478;-65
2021/09/04 01:35:58;;;;;;;22.20;19.80;;;17.50;99.90;;;;;;5057995;28;20982;-65
2021/09/04 01:38:25;;;;;;;22.17;19.90;;;17.50;99.90;;;;;;5056501;28;20471;-65
2021/09/04 01:40:52;;;;;;;26.70;19.80;;;17.40;99.90;;;;;;5061128;28;21689;-65
2021/09/04 01:43:20;;;;;;;20.63;18.30;;;17.40;99.90;;;;;;5061404;28;20462;-65
2021/09/04 01:45:47;;;;;;;19.40;17.30;;;17.30;99.90;;;;;;5060467;28;20467;-65
2021/09/04 01:48:14;;;;;;;19.80;17.80;;;17.30;99.90;;;;;;5061128;28;20471;-65
2021/09/04 01:50:41;;;;;;;20.50;17.07;;;17.30;99.90;;;;;;5061292;28;20536;-65
2021/09/04 01:53:07;;;;;;;18.90;16.90;;;17.30;99.90;;;;;;5061188;28;20474;-65
2021/09/04 01:55:34;;;;;;;21.90;19.50;;;17.30;99.90;;;;;;5060578;28;20470;-65
2021/09/04 01:58:01;;;;;;;25.90;23.13;;;17.30;99.90;;;;;;5061209;28;20996;-65
2021/09/04 02:00:29;;;;;;;23.13;19.63;;;17.30;99.90;;;;;;5061418;28;20473;-65
2021/09/04 02:02:56;;;;;;;23.70;21.30;;;17.20;99.90;;;;;;5060759;28;20436;-65
2021/09/04 02:05:23;;;;;;;25.13;22.55;;;17.20;99.90;;;;;;5060261;28;20451;-64
2021/09/04 02:07:50;;;;;;;24.48;21.88;;;17.20;99.90;;;;;;5058873;28;20436;-65
2021/09/04 02:10:17;;;;;;;21.83;19.53;;;17.30;99.90;;;;;;5060631;28;20790;-65
2021/09/04 02:12:44;;;;;;;21.45;19.35;;;17.40;99.90;;;;;;5058835;28;20450;-64
2021/09/04 02:15:13;;;;;;;18.53;16.73;;;17.40;99.90;;;;;;5061324;28;20256;-64
2021/09/04 02:17:41;;;;;;;22.67;18.73;;;17.40;99.90;;;;;;5059816;28;20889;-64
2021/09/04 02:20:09;;;;;;;21.77;17.60;;;17.40;99.90;;;;;;5060585;28;20462;-64
2021/09/04 02:22:36;;;;;;;20.90;16.70;;;17.30;99.90;;;;;;5060360;28;20466;-64
2021/09/04 02:25:04;;;;;;;20.73;18.73;;;17.30;99.90;;;;;;5061005;28;20455;-64
2021/09/04 02:27:32;;;;;;;22.20;19.33;;;17.30;99.90;;;;;;5060883;28;20547;-64
2021/09/04 02:29:58;;;;;;;20.13;18.10;;;17.20;99.90;;;;;;5060537;28;20479;-64
2021/09/04 02:32:25;;;;;;;22.33;18.70;;;17.20;99.90;;;;;;5060703;28;20471;-64
2021/09/04 02:34:53;;;;;;;23.27;18.90;;;17.10;99.90;;;;;;5059452;28;20476;-64
2021/09/04 02:37:20;;;;;;;20.70;17.17;;;17.10;99.90;;;;;;5060492;28;20467;-64
2021/09/04 02:39:48;;;;;;;21.57;17.83;;;17.10;99.90;;;;;;5060149;28;20471;-64
2021/09/04 02:42:15;;;;;;;22.20;18.50;;;17.10;99.90;;;;;;5060385;28;20467;-65
2021/09/04 02:44:42;;;;;;;23.05;20.85;;;17.00;99.90;;;;;;5059060;28;20450;-65
2021/09/04 02:47:09;;;;;;;21.03;18.30;;;17.00;99.90;;;;;;5060124;28;20671;-65
2021/09/04 02:49:36;;;;;;;21.70;19.23;;;17.10;99.90;;;;;;5059692;28;20999;-65
2021/09/04 02:52:04;;;;;;;21.83;19.30;;;17.00;99.90;;;;;;5059824;28;20783;-65
2021/09/04 02:54:31;;;;;;;21.73;18.10;;;17.00;99.90;;;;;;5060163;28;20471;-64
2021/09/04 02:56:58;;;;;;;21.60;18.70;;;17.00;99.90;;;;;;5059385;28;20491;-64
2021/09/04 02:59:25;;;;;;;18.97;16.63;;;17.00;99.90;;;;;;5060208;28;20471;-63
2021/09/04 03:01:52;;;;;;;27.80;22.33;;;17.00;99.90;;;;;;5059621;28;20467;-64
2021/09/04 03:04:18;;;;;;;24.73;21.10;;;17.00;99.90;;;;;;5060149;28;20467;-64
2021/09/04 03:06:45;;;;;;;23.27;19.40;;;16.90;99.90;;;;;;5059533;28;20462;-64
2021/09/04 03:09:13;;;;;;;20.43;17.80;;;16.90;99.90;;;;;;5059966;28;20477;-64
2021/09/04 03:11:40;;;;;;;22.70;19.47;;;16.90;99.90;;;;;;5059339;28;20459;-65
2021/09/04 03:14:07;;;;;;;23.80;19.50;;;16.80;99.90;;;;;;5059141;28;20472;-64
2021/09/04 03:16:34;;;;;;;21.87;18.97;;;16.80;99.90;;;;;;5059745;28;20761;-64
2021/09/04 03:19:01;;;;;;;23.10;19.67;;;16.80;99.90;;;;;;5059202;28;20804;-64
2021/09/04 03:21:28;;;;;;;25.30;22.60;;;16.80;99.90;;;;;;5059428;28;20469;-64
2021/09/04 03:23:55;;;;;;;24.57;21.20;;;16.80;99.90;;;;;;5058845;28;20457;-64
2021/09/04 03:26:24;;;;;;;24.70;19.97;;;16.70;99.90;;;;;;5059147;28;20812;-64
2021/09/04 03:28:51;;;;;;;23.17;18.90;;;16.70;99.90;;;;;;5059019;28;20477;-64
2021/09/04 03:31:18;;;;;;;22.37;19.23;;;16.70;99.90;;;;;;5059144;28;20474;-64
2021/09/04 03:33:44;;;;;;;27.00;23.13;;;16.60;99.90;;;;;;5059296;28;20454;-64
2021/09/04 03:36:11;;;;;;;24.00;19.33;;;16.60;99.90;;;;;;5058979;28;20583;-64
2021/09/04 03:38:38;;;;;;;24.73;22.00;;;16.50;99.90;;;;;;5058919;28;20975;-65
2021/09/04 03:41:05;;;;;;;25.40;21.40;;;16.60;99.90;;;;;;5057471;28;20476;-64
2021/09/04 03:43:35;;;;;;;39.90;35.10;;;16.50;99.90;;;;;;5058193;28;20467;-64
2021/09/04 03:46:02;;;;;;;31.13;26.00;;;16.50;99.90;;;;;;5057872;28;20485;-65
2021/09/04 03:48:29;;;;;;;26.50;23.70;;;16.50;99.90;;;;;;5058280;28;20467;-64
2021/09/04 03:50:56;;;;;;;27.33;21.50;;;16.50;99.90;;;;;;5056581;28;20467;-64
2021/09/04 03:53:22;;;;;;;26.23;21.80;;;16.50;99.90;;;;;;5056819;28;20465;-65
2021/09/04 03:55:49;;;;;;;22.67;19.37;;;16.50;99.90;;;;;;5056454;28;20485;-65
2021/09/04 03:58:16;;;;;;;26.57;22.77;;;16.40;99.90;;;;;;5056112;28;20479;-64
2021/09/04 04:00:44;;;;;;;30.37;25.73;;;16.40;99.90;;;;;;5056965;28;20458;-65
2021/09/04 04:03:11;;;;;;;26.33;21.90;;;16.40;99.90;;;;;;5057233;28;20593;-65
2021/09/04 04:05:38;;;;;;;24.07;20.20;;;16.40;99.90;;;;;;5057784;28;20463;-64
2021/09/04 04:08:05;;;;;;;29.03;20.30;;;16.30;99.90;;;;;;5058464;28;20463;-65
2021/09/04 04:10:33;;;;;;;24.80;20.27;;;16.30;99.90;;;;;;5059067;28;20466;-65
2021/09/04 04:12:59;;;;;;;24.30;21.80;;;16.20;99.90;;;;;;5058655;28;20960;-64
2021/09/04 04:15:26;;;;;;;25.60;21.50;;;16.20;99.90;;;;;;5058893;28;20455;-64
2021/09/04 04:17:55;;;;;;;24.30;20.17;;;16.20;99.90;;;;;;5058335;28;20471;-65
2021/09/04 04:20:22;;;;;;;23.30;20.80;;;16.20;99.90;;;;;;5058755;28;20465;-65
2021/09/04 04:22:49;;;;;;;23.57;20.90;;;16.20;99.90;;;;;;5058639;28;20540;-65
2021/09/04 04:25:16;;;;;;;25.00;21.10;;;16.20;99.90;;;;;;5058909;28;20532;-65
2021/09/04 04:27:42;;;;;;;22.40;19.40;;;16.20;99.90;;;;;;5059002;28;20469;-65
2021/09/04 04:30:11;;;;;;;25.57;21.00;;;16.10;99.90;;;;;;5058199;28;20469;-65
2021/09/04 04:32:38;;;;;;;22.07;19.17;;;16.10;99.90;;;;;;5058640;28;20471;-65
2021/09/04 04:35:06;;;;;;;23.73;20.10;;;16.10;99.90;;;;;;5058320;28;20850;-65
2021/09/04 04:37:33;;;;;;;28.37;22.70;;;16.10;99.90;;;;;;5058180;28;20724;-65
2021/09/04 04:40:00;;;;;;;27.00;22.67;;;16.10;99.90;;;;;;5058295;28;20969;-64
2021/09/04 04:42:27;;;;;;;23.97;19.67;;;16.10;99.90;;;;;;5058776;28;20472;-65
2021/09/04 04:44:53;;;;;;;24.23;21.33;;;16.10;99.90;;;;;;5057786;28;20467;-65
2021/09/04 04:47:20;;;;;;;21.97;19.67;;;16.10;99.90;;;;;;5058917;28;20484;-64
2021/09/04 04:49:47;;;;;;;21.80;19.20;;;16.00;99.90;;;;;;5058630;28;20550;-64
2021/09/04 04:52:15;;;;;;;22.70;20.30;;;16.00;99.90;;;;;;5058610;28;20540;-64
2021/09/04 04:54:42;;;;;;;22.17;19.47;;;16.00;99.90;;;;;;5058767;28;20456;-65
2021/09/04 04:57:09;;;;;;;21.40;19.10;;;16.00;99.90;;;;;;5058124;28;20497;-65
2021/09/04 04:59:36;;;;;;;22.00;18.57;;;16.00;99.90;;;;;;5058160;28;20983;-65
2021/09/04 05:02:03;;;;;;;20.53;18.40;;;16.00;99.90;;;;;;5058332;28;20464;-65
2021/09/04 05:04:29;;;;;;;20.77;17.80;;;16.00;99.90;;;;;;5058832;28;20960;-65
2021/09/04 05:06:56;;;;;;;24.80;19.20;;;16.00;99.90;;;;;;5057996;28;20478;-65
2021/09/04 05:09:24;;;;;;;22.17;17.80;;;16.00;99.90;;;;;;5058487;28;20467;-65
2021/09/04 05:11:51;;;;;;;23.50;17.90;;;16.00;99.90;;;;;;5058298;28;20466;-65
2021/09/04 05:14:18;;;;;;;21.13;17.00;;;16.00;99.90;;;;;;5060404;28;20459;-65
2021/09/04 05:16:45;;;;;;;50.40;42.23;;;16.00;99.90;;;;;;5062697;28;20472;-65
2021/09/04 05:19:12;;;;;;;49.90;43.67;;;16.00;99.90;;;;;;5061598;28;20468;-65
2021/09/04 05:21:39;;;;;;;53.13;41.70;;;16.20;99.90;;;;;;5062163;28;20466;-65
2021/09/04 05:24:06;;;;;;;38.00;32.87;;;16.40;99.90;;;;;;5061946;28;20489;-64
2021/09/04 05:26:34;;;;;;;25.60;22.83;;;16.60;99.90;;;;;;5062458;28;20475;-65
2021/09/04 05:29:01;;;;;;;20.87;18.67;;;16.80;99.90;;;;;;5061848;28;20482;-64
2021/09/04 05:31:28;;;;;;;19.47;17.47;;;17.00;99.90;;;;;;5062309;28;21021;-64
2021/09/04 05:33:55;;;;;;;19.93;16.33;;;17.00;99.90;;;;;;5061673;28;20474;-64
2021/09/04 05:36:22;;;;;;;18.17;16.30;;;17.10;99.90;;;;;;5062156;28;20503;-65
2021/09/04 05:38:48;;;;;;;17.37;15.50;;;17.10;99.90;;;;;;5061275;28;20469;-65
2021/09/04 05:41:15;;;;;;;17.97;15.73;;;17.00;99.90;;;;;;5061996;28;20546;-64
2021/09/04 05:43:43;;;;;;;19.40;17.30;;;17.00;99.90;;;;;;5061625;28;20458;-64
2021/09/04 05:46:10;;;;;;;19.60;17.50;;;16.90;99.90;;;;;;5061254;28;20480;-65
2021/09/04 05:48:37;;;;;;;19.73;16.80;;;16.90;99.90;;;;;;5061645;28;20481;-65
2021/09/04 05:51:04;;;;;;;18.67;16.37;;;16.80;99.90;;;;;;5061301;28;20823;-64
2021/09/04 05:53:31;;;;;;;18.37;16.10;;;16.70;99.90;;;;;;5061574;28;21203;-66
2021/09/04 05:55:58;;;;;;;18.47;15.43;;;16.60;99.90;;;;;;5060757;28;20473;-65
2021/09/04 05:58:25;;;;;;;18.53;15.33;;;16.50;99.90;;;;;;5061637;28;20478;-65
2021/09/04 06:00:54;;;;;;;22.83;16.30;;;16.50;99.90;;;;;;5061626;28;20485;-65
2021/09/04 06:03:20;;;;;;;16.83;15.10;;;16.50;99.90;;;;;;5061367;28;20501;-65
2021/09/04 06:05:47;;;;;;;17.97;16.07;;;16.50;99.90;;;;;;5061566;28;20473;-65
2021/09/04 06:08:14;;;;;;;16.53;14.83;;;16.50;99.90;;;;;;5073626;28;20469;-63
2021/09/04 06:10:41;;;;;;;19.43;15.80;;;16.40;99.90;;;;;;5074421;28;20463;-64
2021/09/04 06:13:08;;;;;;;18.23;15.03;;;16.40;99.90;;;;;;5072702;28;20476;-64
2021/09/04 06:15:35;;;;;;;17.27;15.40;;;16.40;99.90;;;;;;5073011;28;20473;-64
2021/09/04 06:18:03;;;;;;;16.03;14.10;;;16.40;99.90;;;;;;5070054;28;20470;-64
2021/09/04 06:20:30;;;;;;;20.23;15.70;;;16.40;99.90;;;;;;5070159;28;20460;-64
2021/09/04 06:22:57;;;;;;;18.70;16.70;;;16.40;99.90;;;;;;5058744;28;20471;-64
2021/09/04 06:25:23;;;;;;;19.07;16.50;;;16.50;99.90;;;;;;5053954;28;21204;-64
2021/09/04 06:27:50;;;;;;;25.03;18.20;;;16.60;99.90;;;;;;5054777;28;20463;-64
2021/09/04 06:30:17;;;;;;;19.77;16.60;;;16.70;99.90;;;;;;5053928;28;20471;-64
2021/09/04 06:32:44;;;;;;;16.50;13.63;;;16.80;99.90;;;;;;5066896;28;20468;-64
2021/09/04 06:35:12;;;;;;;18.40;15.97;;;16.90;99.90;;;;;;5074091;28;20467;-64
2021/09/04 06:37:39;;;;;;;16.87;14.87;;;16.90;99.90;;;;;;5064104;28;20473;-65
2021/09/04 06:40:07;;;;;;;17.50;14.87;;;16.90;99.90;;;;;;5053953;28;20999;-64
2021/09/04 06:42:34;;;;;;;15.60;14.00;;;16.90;99.90;;;;;;5066411;28;20819;-64
2021/09/04 06:45:01;;;;;;;17.40;15.50;;;16.90;99.90;;;;;;5070215;28;20460;-64
2021/09/04 06:47:28;;;;;;;15.07;13.57;;;16.80;99.90;;;;;;5072519;28;20458;-64
2021/09/04 06:49:55;;;;;;;16.17;12.50;;;16.80;99.90;;;;;;5074177;28;20466;-64
2021/09/04 06:52:23;;;;;;;14.57;13.17;;;16.80;99.90;;;;;;5073543;28;20458;-64
2021/09/04 06:54:50;;;;;;;15.20;13.60;;;16.80;99.90;;;;;;5074164;28;20467;-64
2021/09/04 06:57:17;;;;;;;13.87;12.47;;;16.80;99.90;;;;;;5073207;28;20817;-64
2021/09/04 06:59:43;;;;;;;12.87;11.53;;;16.80;99.90;;;;;;5074045;28;20839;-64
2021/09/04 07:02:10;;;;;;;14.50;13.00;;;16.80;99.90;;;;;;5069024;28;20463;-64
2021/09/04 07:04:37;;;;;;;14.50;13.00;;;16.80;99.90;;;;;;5054102;28;20468;-64
2021/09/04 07:07:05;;;;;;;16.37;13.87;;;16.70;99.90;;;;;;5053417;28;20769;-64
2021/09/04 07:09:33;;;;;;;16.80;14.23;;;16.70;99.90;;;;;;5072584;28;20466;-64
2021/09/04 07:12:00;;;;;;;14.87;13.20;;;16.70;99.90;;;;;;5073784;28;20994;-64
2021/09/04 07:14:27;;;;;;;17.40;14.80;;;16.70;99.90;;;;;;5062327;28;20460;-64
2021/09/04 07:16:54;;;;;;;14.43;12.90;;;16.80;99.90;;;;;;5053759;28;20474;-64
2021/09/04 07:19:21;;;;;;;18.83;16.40;;;16.80;99.90;;;;;;5057455;28;20839;-64
2021/09/04 07:21:48;;;;;;;18.10;15.10;;;16.80;99.90;;;;;;5053554;28;20474;-64
2021/09/04 07:24:14;;;;;;;16.07;13.33;;;16.80;99.90;;;;;;5053242;28;20474;-64
2021/09/04 07:26:43;;;;;;;19.00;15.70;;;16.80;99.90;;;;;;5053636;28;21037;-65
2021/09/04 07:29:10;;;;;;;15.50;13.73;;;16.80;99.90;;;;;;5052537;28;20467;-65
2021/09/04 07:31:36;;;;;;;14.77;12.93;;;16.90;99.90;;;;;;5059406;28;20473;-65
2021/09/04 07:34:04;;;;;;;15.83;13.47;;;16.90;99.90;;;;;;5070893;28;20491;-65
2021/09/04 07:36:31;;;;;;;20.23;15.93;;;16.90;99.90;;;;;;5071243;28;20462;-65
2021/09/04 07:38:58;;;;;;;17.50;14.97;;;16.90;99.90;;;;;;5053416;28;20466;-65
2021/09/04 07:41:24;;;;;;;20.20;14.80;;;17.00;99.90;;;;;;5052846;28;20988;-64
2021/09/04 07:43:53;;;;;;;17.10;13.40;;;16.90;99.90;;;;;;5053334;28;20477;-65
2021/09/04 07:46:20;;;;;;;17.13;14.70;;;16.90;99.90;;;;;;5066765;28;20465;-66
2021/09/04 07:48:47;;;;;;;18.60;16.60;;;17.00;99.90;;;;;;5072620;28;20486;-64
2021/09/04 07:51:13;;;;;;;18.47;16.50;;;17.00;99.90;;;;;;5072543;28;20469;-64
2021/09/04 07:53:40;;;;;;;15.97;14.13;;;17.00;99.90;;;;;;5073017;28;20467;-64
2021/09/04 07:56:07;;;;;;;14.93;13.10;;;17.10;99.90;;;;;;5072972;28;20470;-64
2021/09/04 07:58:34;;;;;;;14.07;12.50;;;17.10;99.90;;;;;;5072007;28;20454;-64
2021/09/04 08:01:02;;;;;;;13.93;12.40;;;17.20;99.90;;;;;;5072786;28;20462;-64
2021/09/04 08:03:29;;;;;;;17.07;14.23;;;17.20;99.90;;;;;;5072123;28;20465;-64
2021/09/04 08:05:56;;;;;;;14.37;12.87;;;17.30;99.90;;;;;;5072729;28;20477;-64
2021/09/04 08:08:23;;;;;;;14.23;12.77;;;17.30;99.90;;;;;;5072139;28;20466;-64
2021/09/04 08:10:50;;;;;;;17.00;13.30;;;17.30;99.90;;;;;;5072852;28;20454;-64
2021/09/04 08:13:17;;;;;;;13.20;11.90;;;17.30;99.90;;;;;;5072373;28;20462;-65
2021/09/04 08:15:44;;;;;;;15.37;13.77;;;17.30;99.90;;;;;;5072612;28;20466;-65
2021/09/04 08:18:12;;;;;;;15.40;13.80;;;17.30;99.90;;;;;;5072095;28;20516;-65
2021/09/04 08:20:39;;;;;;;15.67;13.07;;;17.30;99.90;;;;;;5072704;28;20958;-64
2021/09/04 08:23:07;;;;;;;13.33;11.00;;;17.40;99.90;;;;;;5072649;28;20471;-65
2021/09/04 08:25:34;;;;;;;16.50;13.13;;;17.40;99.90;;;;;;5072239;28;20463;-65
2021/09/04 08:28:01;;;;;;;19.13;13.60;;;17.50;99.90;;;;;;5072574;28;20816;-65
2021/09/04 08:30:28;;;;;;;16.97;12.70;;;17.50;99.90;;;;;;5072070;28;20462;-65
2021/09/04 08:32:55;;;;;;;17.27;12.70;;;17.60;99.90;;;;;;5072595;28;20793;-64
2021/09/04 08:35:23;;;;;;;17.10;12.97;;;17.60;99.90;;;;;;5072056;28;20462;-64
2021/09/04 08:37:52;;;;;;;16.70;13.37;;;17.60;99.90;;;;;;5072350;28;20975;-64
2021/09/04 08:40:21;;;;;;;14.87;12.03;;;17.70;99.90;;;;;;5072029;28;20967;-64
2021/09/04 08:42:48;;;;;;;14.53;12.40;;;17.70;99.90;;;;;;5072534;28;20470;-65
2021/09/04 08:45:15;;;;;;;13.60;11.00;;;17.70;99.90;;;;;;5072041;28;20462;-65
2021/09/04 08:47:42;;;;;;;14.73;10.60;;;17.80;99.90;;;;;;5073342;28;20470;-64
2021/09/04 08:50:11;;;;;;;16.43;12.37;;;17.90;99.90;;;;;;5076461;28;20471;-65
2021/09/04 08:52:39;;;;;;;13.50;11.50;;;17.90;99.90;;;;;;5076257;28;20781;-64
2021/09/04 08:55:07;;;;;;;14.70;11.20;;;17.90;99.90;;;;;;5076619;28;20506;-65
2021/09/04 08:57:33;;;;;;;13.80;11.37;;;18.00;99.90;;;;;;5075877;28;20468;-64
2021/09/04 09:00:01;;;;;;;16.20;12.10;;;18.00;99.90;;;;;;5076386;28;20472;-64
2021/09/04 09:02:29;;;;;;;13.27;11.80;;;18.10;99.90;;;;;;5075998;28;20462;-64
2021/09/04 09:05:00;;;;;;;15.00;12.50;;;18.10;99.90;;;;;;5076242;28;20466;-65
2021/09/04 09:07:43;;;;;;;15.30;12.73;;;18.10;99.90;;;;;;5075775;28;20462;-65
2021/09/04 09:10:32;;;;;;;14.13;12.30;;;18.10;99.90;;;;;;5076128;28;20470;-65
2021/09/04 09:12:59;;;;;;;15.80;12.57;;;18.20;99.90;;;;;;5076104;28;20503;-65
2021/09/04 09:15:28;;;;;;;12.07;10.07;;;18.20;99.90;;;;;;5076177;28;20470;-65
2021/09/04 09:18:00;;;;;;;14.80;12.23;;;18.20;99.90;;;;;;5075756;28;20462;-65
2021/09/04 09:20:27;;;;;;;12.27;9.67;;;18.30;99.90;;;;;;5075575;28;20476;-65
2021/09/04 09:23:04;;;;;;;23.50;10.67;;;18.30;99.90;;;;;;5076143;28;20489;-65
2021/09/04 09:25:33;;;;;;;15.70;12.37;;;18.40;99.90;;;;;;5075652;28;21243;-65
2021/09/04 09:28:02;;;;;;;13.80;10.77;;;18.40;99.90;;;;;;5075596;28;20855;-65
2021/09/04 09:30:34;;;;;;;17.73;13.70;;;18.40;99.90;;;;;;5074943;28;20462;-64
2021/09/04 09:33:01;;;;;;;14.57;10.43;;;18.50;99.90;;;;;;5075816;28;20458;-64
2021/09/04 09:35:37;;;;;;;16.13;11.83;;;18.50;99.90;;;;;;5075031;28;20467;-64
2021/09/04 09:38:07;;;;;;;17.27;12.80;;;18.50;99.90;;;;;;5075477;28;20468;-64
2021/09/04 09:40:35;;;;;;;15.93;12.80;;;18.50;99.90;;;;;;5075503;28;21198;-64
2021/09/04 09:43:02;;;;;;;16.17;12.50;;;18.50;99.90;;;;;;5075395;28;20978;-64
2021/09/04 09:45:40;;;;;;;13.00;11.60;;;18.60;99.90;;;;;;5075037;28;20462;-64
2021/09/04 09:48:07;;;;;;;14.33;11.70;;;18.60;99.90;;;;;;5075155;28;20833;-64
2021/09/04 09:50:35;;;;;;;14.73;11.00;;;18.60;99.90;;;;;;5074862;28;20954;-64
2021/09/04 09:53:02;;;;;;;12.90;11.00;;;18.60;99.90;;;;;;5075302;28;20953;-64
2021/09/04 09:55:31;;;;;;;15.37;11.40;;;18.70;99.90;;;;;;5074775;28;20462;-64
2021/09/04 09:57:59;;;;;;;13.37;10.90;;;18.70;99.90;;;;;;5075135;28;20462;-65
2021/09/04 10:00:27;;;;;;;15.87;13.37;;;18.70;99.90;;;;;;5073953;28;20466;-65
2021/09/04 10:02:59;;;;;;;16.60;13.87;;;18.70;99.90;;;;;;5075088;28;20466;-65
2021/09/04 10:05:28;;;;;;;17.27;13.67;;;18.80;99.90;;;;;;5074728;28;20470;-65
2021/09/04 10:07:55;;;;;;;15.93;13.87;;;18.80;99.90;;;;;;5075026;28;20471;-64
2021/09/04 10:10:23;;;;;;;15.77;14.07;;;18.80;99.90;;;;;;5074438;28;20462;-64
2021/09/04 10:12:51;;;;;;;17.60;12.80;;;18.80;99.90;;;;;;5075033;28;20466;-66
2021/09/04 10:15:19;;;;;;;14.63;13.13;;;18.90;99.90;;;;;;5074267;28;20991;-65
2021/09/04 10:17:49;;;;;;;15.90;11.57;;;18.80;99.90;;;;;;5074916;28;20473;-65
2021/09/04 10:20:16;;;;;;;15.97;13.20;;;18.80;99.90;;;;;;5074429;28;20816;-65
2021/09/04 10:22:44;;;;;;;15.20;12.07;;;18.90;99.90;;;;;;5074792;28;20466;-65
2021/09/04 10:25:16;;;;;;;17.23;13.40;;;18.90;99.90;;;;;;5074799;28;20466;-65
2021/09/04 10:27:45;;;;;;;15.53;12.03;;;18.90;99.90;;;;;;5074647;28;20541;-64
2021/09/04 10:30:27;;;;;;;12.10;10.57;;;18.90;99.90;;;;;;5074300;28;20466;-65
2021/09/04 10:32:59;;;;;;;18.77;13.10;;;19.00;99.90;;;;;;5074735;28;20473;-65
2021/09/04 10:35:46;;;;;;;17.20;12.47;;;19.00;99.90;;;;;;5074308;28;20451;-65
2021/09/04 10:38:36;;;;;;;14.20;11.53;;;19.00;99.90;;;;;;5073811;28;20470;-62
2021/09/04 10:41:23;;;;;;;16.47;11.67;;;19.00;99.90;;;;;;5073899;28;20461;-65
2021/09/04 10:43:55;;;;;;;15.97;12.20;;;19.00;99.90;;;;;;5074436;28;20468;-65
2021/09/04 10:46:24;;;;;;;13.90;11.37;;;19.00;99.90;;;;;;5073774;28;22312;-65
2021/09/04 10:49:09;;;;;;;13.23;11.80;;;19.00;99.90;;;;;;5074299;28;21184;-65
2021/09/04 10:51:50;;;;;;;13.47;11.70;;;19.00;99.90;;;;;;5074046;28;20462;-65
2021/09/04 10:54:40;;;;;;;12.50;11.20;;;19.10;99.90;;;;;;5073567;28;20469;-64
2021/09/04 10:57:15;;;;;;;15.57;13.20;;;19.10;99.90;;;;;;5074181;28;20465;-64
2021/09/04 11:00:19;;;;;;;19.63;15.73;;;19.10;99.90;;;;;;5073605;28;20449;-65
2021/09/04 11:02:49;;;;;;;20.23;16.00;;;19.20;99.90;;;;;;5074020;28;21189;-65
2021/09/04 11:05:41;;;;;;;19.47;16.03;;;19.20;99.90;;;;;;5073807;28;20462;-65
2021/09/04 11:08:10;;;;;;;14.40;12.90;;;19.20;99.90;;;;;;5070253;28;20458;-65
2021/09/04 11:10:38;;;;;;;15.97;11.87;;;19.30;99.90;;;;;;5073509;28;20490;-67
2021/09/04 11:13:07;;;;;;;14.57;11.57;;;19.30;99.90;;;;;;5072763;28;20493;-63
2021/09/04 11:15:34;;;;;;;18.30;14.27;;;19.30;99.90;;;;;;5073843;28;20480;-64
2021/09/04 11:18:02;;;;;;;16.13;13.90;;;19.40;99.90;;;;;;5073513;28;20485;-65
2021/09/04 11:20:30;;;;;;;18.70;16.77;;;19.40;99.90;;;;;;5073277;28;20450;-65
2021/09/04 11:22:57;;;;;;;17.83;14.50;;;19.50;99.90;;;;;;5073620;28;20505;-65
2021/09/04 11:25:25;;;;;;;14.20;12.63;;;19.50;99.90;;;;;;5073084;28;20470;-65
2021/09/04 11:27:52;;;;;;;18.13;14.07;;;19.50;99.90;;;;;;5073579;28;20516;-64
2021/09/04 11:30:20;;;;;;;17.27;13.07;;;19.50;99.90;;;;;;5072931;28;20474;-65
2021/09/04 11:32:47;;;;;;;12.80;11.50;;;19.60;99.90;;;;;;5073215;28;20549;-65
2021/09/04 11:35:16;;;;;;;12.07;10.83;;;19.60;99.90;;;;;;5072877;28;20463;-65
2021/09/04 11:37:45;;;;;;;14.63;11.93;;;19.60;99.90;;;;;;5073214;28;20462;-65
2021/09/04 11:40:14;;;;;;;11.87;10.67;;;19.60;99.90;;;;;;5072631;28;20484;-65
2021/09/04 11:42:43;;;;;;;13.10;10.77;;;19.60;99.90;;;;;;5073241;28;20470;-65
2021/09/04 11:45:12;;;;;;;11.53;10.37;;;19.60;99.90;;;;;;5072776;28;20473;-64
2021/09/04 11:47:43;;;;;;;16.30;12.73;;;19.70;99.90;;;;;;5073102;28;21028;-65
2021/09/04 11:50:12;;;;;;;12.67;10.10;;;19.70;99.90;;;;;;5072777;28;20488;-66
2021/09/04 11:52:41;;;;;;;16.60;13.77;;;19.70;99.90;;;;;;5072956;28;20474;-66
2021/09/04 11:55:12;;;;;;;16.73;12.30;;;19.70;99.90;;;;;;5072481;28;20946;-66
2021/09/04 11:57:40;;;;;;;17.13;13.50;;;19.80;99.90;;;;;;5073155;28;20539;-66
2021/09/04 12:00:15;;;;;;;19.77;17.17;;;19.80;99.90;;;;;;5072949;28;20966;-65
2021/09/04 12:02:45;;;;;;;18.83;15.37;;;19.80;99.90;;;;;;5073251;28;20541;-65
2021/09/04 12:05:14;;;;;;;21.37;15.87;;;19.90;99.90;;;;;;5072409;28;20955;-66
2021/09/04 12:07:42;;;;;;;17.27;13.30;;;19.90;99.90;;;;;;5072778;28;20471;-66
2021/09/04 12:10:11;;;;;;;18.40;14.40;;;19.90;99.90;;;;;;5072191;28;20477;-65
2021/09/04 12:12:39;;;;;;;15.63;12.90;;;19.90;99.90;;;;;;5072562;28;20473;-65
2021/09/04 12:15:10;;;;;;;19.23;12.93;;;19.90;99.90;;;;;;5072206;28;20515;-65
2021/09/04 12:17:47;;;;;;;18.57;14.20;;;20.00;99.90;;;;;;5072828;28;20518;-65
2021/09/04 12:20:15;;;;;;;14.67;12.20;;;20.00;99.90;;;;;;5072120;28;20446;-64
2021/09/04 12:22:44;;;;;;;17.60;13.60;;;20.10;99.90;;;;;;5072168;28;20466;-64
2021/09/04 12:25:25;;;;;;;15.60;14.00;;;20.10;99.90;;;;;;5072126;28;20948;-64
2021/09/04 12:27:59;;;;;;;16.70;13.97;;;20.20;99.90;;;;;;5072194;28;20462;-64
2021/09/04 12:30:26;;;;;;;14.60;13.07;;;20.20;99.90;;;;;;5072516;28;20474;-64
2021/09/04 12:33:04;;;;;;;15.33;12.57;;;20.30;99.90;;;;;;5071622;28;20470;-65